sensor_id;sensor_type;location;lat;lon;timestamp;temperature;humidity
6536;DHT22;34330;52.08032700;5.40923460;2023-08-01T00:00:34;19.90;95.60
6536;DHT22;34330;52.08032700;5.40923460;2023-08-01T00:03:02;19.90;95.60
6536;DHT22;34330;52.08032700;5.40923460;2023-08-01T00:05:30;19.90;95.50
6536;DHT22;34330;52.08032700;5.40923460;2023-08-01T00:07:58;19.80;95.50
6536;DHT22;34330;52.08032700;5.40923460;2023-08-01T00:10:26;19.80;95.60
6536;DHT22;34330;52.08032700;5.40923460;2023-08-01T00:12:55;19.80;95.60
6536;DHT22;34330;52.08032700;5.40923460;2023-08-01T00:15:24;19.80;95.50
6536;DHT22;34330;52.08032700;5.40923460;2023-08-01T00:17:52;19.90;95.40
6536;DHT22;34330;52.08032700;5.40923460;2023-08-01T00:20:20;19.80;95.30
6536;DHT22;34330;52.08032700;5.40923460;2023-08-01T00:22:48;19.80;95.40
6536;DHT22;34330;52.08032700;5.40923460;2023-08-01T00:25:17;19.80;95.40
6536;DHT22;34330;52.08032700;5.40923460;2023-08-01T00:27:45;19.70;95.40
6536;DHT22;34330;52.08032700;5.40923460;2023-08-01T00:30:14;19.70;95.40
6536;DHT22;34330;52.08032700;5.40923460;2023-08-01T00:32:42;19.70;95.40
6536;DHT22;34330;52.08032700;5.40923460;2023-08-01T00:35:11;19.70;95.40
6536;DHT22;34330;52.08032700;5.40923460;2023-08-01T00:37:39;19.70;95.50
6536;DHT22;34330;52.08032700;5.40923460;2023-08-01T00:40:10;19.60;95.80
6536;DHT22;34330;52.08032700;5.40923460;2023-08-01T00:42:39;19.60;95.50
6536;DHT22;34330;52.08032700;5.40923460;2023-08-01T00:45:08;19.60;95.40
6536;DHT22;34330;52.08032700;5.40923460;2023-08-01T00:47:38;19.60;95.40
6536;DHT22;34330;52.08032700;5.40923460;2023-08-01T00:50:07;19.60;95.40
6536;DHT22;34330;52.08032700;5.40923460;2023-08-01T00:52:35;19.60;95.30
6536;DHT22;34330;52.08032700;5.40923460;2023-08-01T00:55:04;19.60;95.50
6536;DHT22;34330;52.08032700;5.40923460;2023-08-01T00:57:32;19.50;95.50
6536;DHT22;34330;52.08032700;5.40923460;2023-08-01T01:00:00;19.50;95.40
6536;DHT22;34330;52.08032700;5.40923460;2023-08-01T01:02:28;19.50;95.40
6536;DHT22;34330;52.08032700;5.40923460;2023-08-01T01:05:00;19.50;95.40
6536;DHT22;34330;52.08032700;5.40923460;2023-08-01T01:07:29;19.50;95.60
6536;DHT22;34330;52.08032700;5.40923460;2023-08-01T01:09:58;19.50;95.50
6536;DHT22;34330;52.08032700;5.40923460;2023-08-01T01:12:26;20.70;96.10
6536;DHT22;34330;52.08032700;5.40923460;2023-08-01T01:14:54;19.40;95.40
6536;DHT22;34330;52.08032700;5.40923460;2023-08-01T01:17:22;19.50;95.50
6536;DHT22;34330;52.08032700;5.40923460;2023-08-01T01:19:50;19.30;95.40
6536;DHT22;34330;52.08032700;5.40923460;2023-08-01T01:22:19;19.40;95.50
6536;DHT22;34330;52.08032700;5.40923460;2023-08-01T01:24:48;19.40;95.50
6536;DHT22;34330;52.08032700;5.40923460;2023-08-01T01:27:17;19.30;95.50
6536;DHT22;34330;52.08032700;5.40923460;2023-08-01T01:29:47;19.30;95.60
6536;DHT22;34330;52.08032700;5.40923460;2023-08-01T01:32:16;19.40;95.70
6536;DHT22;34330;52.08032700;5.40923460;2023-08-01T01:34:44;19.30;95.60
6536;DHT22;34330;52.08032700;5.40923460;2023-08-01T01:37:12;19.30;95.60
6536;DHT22;34330;52.08032700;5.40923460;2023-08-01T01:39:42;19.20;95.40
6536;DHT22;34330;52.08032700;5.40923460;2023-08-01T01:42:10;19.20;95.50
6536;DHT22;34330;52.08032700;5.40923460;2023-08-01T01:44:39;19.20;95.50
6536;DHT22;34330;52.08032700;5.40923460;2023-08-01T01:47:08;19.20;95.60
6536;DHT22;34330;52.08032700;5.40923460;2023-08-01T01:49:36;19.20;95.60
6536;DHT22;34330;52.08032700;5.40923460;2023-08-01T01:52:04;19.20;95.60
6536;DHT22;34330;52.08032700;5.40923460;2023-08-01T01:54:32;19.10;95.60
6536;DHT22;34330;52.08032700;5.40923460;2023-08-01T01:57:01;19.10;95.70
6536;DHT22;34330;52.08032700;5.40923460;2023-08-01T01:59:29;19.10;95.70
6536;DHT22;34330;52.08032700;5.40923460;2023-08-01T02:02:00;19.10;95.70
6536;DHT22;34330;52.08032700;5.40923460;2023-08-01T02:04:30;19.10;95.80
6536;DHT22;34330;52.08032700;5.40923460;2023-08-01T02:06:58;19.10;95.70
6536;DHT22;34330;52.08032700;5.40923460;2023-08-01T02:09:26;19.10;95.80
6536;DHT22;34330;52.08032700;5.40923460;2023-08-01T02:11:55;19.00;95.80
6536;DHT22;34330;52.08032700;5.40923460;2023-08-01T02:14:24;19.00;96.10
6536;DHT22;34330;52.08032700;5.40923460;2023-08-01T02:16:52;19.00;95.90
6536;DHT22;34330;52.08032700;5.40923460;2023-08-01T02:19:20;19.00;95.90
6536;DHT22;34330;52.08032700;5.40923460;2023-08-01T02:21:48;19.00;95.90
6536;DHT22;34330;52.08032700;5.40923460;2023-08-01T02:24:16;19.00;95.90
6536;DHT22;34330;52.08032700;5.40923460;2023-08-01T02:26:44;19.00;96.00
6536;DHT22;34330;52.08032700;5.40923460;2023-08-01T02:29:12;19.00;96.00
6536;DHT22;34330;52.08032700;5.40923460;2023-08-01T02:31:41;19.00;96.10
6536;DHT22;34330;52.08032700;5.40923460;2023-08-01T02:34:10;18.90;96.10
6536;DHT22;34330;52.08032700;5.40923460;2023-08-01T02:36:38;19.00;96.20
6536;DHT22;34330;52.08032700;5.40923460;2023-08-01T02:39:07;19.00;96.20
6536;DHT22;34330;52.08032700;5.40923460;2023-08-01T02:41:35;19.00;96.20
6536;DHT22;34330;52.08032700;5.40923460;2023-08-01T02:44:03;19.00;96.30
6536;DHT22;34330;52.08032700;5.40923460;2023-08-01T02:46:30;18.90;96.30
6536;DHT22;34330;52.08032700;5.40923460;2023-08-01T02:49:00;19.00;96.40
6536;DHT22;34330;52.08032700;5.40923460;2023-08-01T02:51:28;19.00;96.40
6536;DHT22;34330;52.08032700;5.40923460;2023-08-01T02:53:56;19.00;96.30
6536;DHT22;34330;52.08032700;5.40923460;2023-08-01T02:56:24;19.00;96.50
6536;DHT22;34330;52.08032700;5.40923460;2023-08-01T02:58:54;19.00;96.50
6536;DHT22;34330;52.08032700;5.40923460;2023-08-01T03:01:24;19.00;96.60
6536;DHT22;34330;52.08032700;5.40923460;2023-08-01T03:03:52;19.00;96.60
6536;DHT22;34330;52.08032700;5.40923460;2023-08-01T03:06:21;19.00;96.50
6536;DHT22;34330;52.08032700;5.40923460;2023-08-01T03:08:49;19.00;96.60
6536;DHT22;34330;52.08032700;5.40923460;2023-08-01T03:11:17;19.00;96.50
6536;DHT22;34330;52.08032700;5.40923460;2023-08-01T03:13:45;19.00;96.50
6536;DHT22;34330;52.08032700;5.40923460;2023-08-01T03:16:14;19.10;96.50
6536;DHT22;34330;52.08032700;5.40923460;2023-08-01T03:18:41;19.00;96.40
6536;DHT22;34330;52.08032700;5.40923460;2023-08-01T03:21:10;19.00;96.40
6536;DHT22;34330;52.08032700;5.40923460;2023-08-01T03:23:39;19.00;96.30
6536;DHT22;34330;52.08032700;5.40923460;2023-08-01T03:26:07;19.10;96.40
6536;DHT22;34330;52.08032700;5.40923460;2023-08-01T03:28:35;19.00;96.30
6536;DHT22;34330;52.08032700;5.40923460;2023-08-01T03:31:04;19.00;96.50
6536;DHT22;34330;52.08032700;5.40923460;2023-08-01T03:33:32;19.00;96.60
6536;DHT22;34330;52.08032700;5.40923460;2023-08-01T03:36:00;19.10;96.70
6536;DHT22;34330;52.08032700;5.40923460;2023-08-01T03:38:28;19.10;96.60
6536;DHT22;34330;52.08032700;5.40923460;2023-08-01T03:40:58;19.10;96.80
6536;DHT22;34330;52.08032700;5.40923460;2023-08-01T03:43:26;19.10;96.50
6536;DHT22;34330;52.08032700;5.40923460;2023-08-01T03:45:54;19.10;96.50
6536;DHT22;34330;52.08032700;5.40923460;2023-08-01T03:48:22;19.20;96.60
6536;DHT22;34330;52.08032700;5.40923460;2023-08-01T03:50:50;19.20;96.60
6536;DHT22;34330;52.08032700;5.40923460;2023-08-01T03:53:18;19.00;96.50
6536;DHT22;34330;52.08032700;5.40923460;2023-08-01T03:55:47;19.20;96.60
6536;DHT22;34330;52.08032700;5.40923460;2023-08-01T03:58:16;19.20;96.40
6536;DHT22;34330;52.08032700;5.40923460;2023-08-01T04:00:44;19.20;96.20
6536;DHT22;34330;52.08032700;5.40923460;2023-08-01T04:03:12;19.10;96.10
6536;DHT22;34330;52.08032700;5.40923460;2023-08-01T04:05:40;19.10;96.00
6536;DHT22;34330;52.08032700;5.40923460;2023-08-01T04:08:09;19.10;96.10
6536;DHT22;34330;52.08032700;5.40923460;2023-08-01T04:10:37;19.10;96.10
6536;DHT22;34330;52.08032700;5.40923460;2023-08-01T04:13:05;19.00;96.10
6536;DHT22;34330;52.08032700;5.40923460;2023-08-01T04:15:34;19.00;96.10
6536;DHT22;34330;52.08032700;5.40923460;2023-08-01T04:18:02;19.10;96.30
6536;DHT22;34330;52.08032700;5.40923460;2023-08-01T04:20:30;19.00;96.30
6536;DHT22;34330;52.08032700;5.40923460;2023-08-01T04:22:58;19.00;96.30
6536;DHT22;34330;52.08032700;5.40923460;2023-08-01T04:25:27;19.00;96.30
6536;DHT22;34330;52.08032700;5.40923460;2023-08-01T04:27:55;19.00;96.30
6536;DHT22;34330;52.08032700;5.40923460;2023-08-01T04:30:23;19.00;96.40
6536;DHT22;34330;52.08032700;5.40923460;2023-08-01T04:32:52;19.00;96.50
6536;DHT22;34330;52.08032700;5.40923460;2023-08-01T04:35:20;19.60;96.90
6536;DHT22;34330;52.08032700;5.40923460;2023-08-01T04:37:48;19.00;96.70
6536;DHT22;34330;52.08032700;5.40923460;2023-08-01T04:40:16;19.00;96.80
6536;DHT22;34330;52.08032700;5.40923460;2023-08-01T04:42:44;19.00;96.90
6536;DHT22;34330;52.08032700;5.40923460;2023-08-01T04:45:12;19.00;96.90
6536;DHT22;34330;52.08032700;5.40923460;2023-08-01T04:47:40;19.00;97.00
6536;DHT22;34330;52.08032700;5.40923460;2023-08-01T04:50:10;19.00;97.00
6536;DHT22;34330;52.08032700;5.40923460;2023-08-01T04:52:38;19.00;97.10
6536;DHT22;34330;52.08032700;5.40923460;2023-08-01T04:55:07;19.00;97.10
6536;DHT22;34330;52.08032700;5.40923460;2023-08-01T04:57:35;16.50;95.90
6536;DHT22;34330;52.08032700;5.40923460;2023-08-01T05:00:04;19.10;97.20
6536;DHT22;34330;52.08032700;5.40923460;2023-08-01T05:02:32;19.10;97.30
6536;DHT22;34330;52.08032700;5.40923460;2023-08-01T05:05:00;19.10;97.30
6536;DHT22;34330;52.08032700;5.40923460;2023-08-01T05:07:29;18.90;97.20
6536;DHT22;34330;52.08032700;5.40923460;2023-08-01T05:10:00;19.10;97.40
6536;DHT22;34330;52.08032700;5.40923460;2023-08-01T05:12:28;19.10;97.40
6536;DHT22;34330;52.08032700;5.40923460;2023-08-01T05:14:56;19.20;97.50
6536;DHT22;34330;52.08032700;5.40923460;2023-08-01T05:17:24;19.20;97.50
6536;DHT22;34330;52.08032700;5.40923460;2023-08-01T05:19:53;19.20;97.60
6536;DHT22;34330;52.08032700;5.40923460;2023-08-01T05:22:22;19.30;97.70
6536;DHT22;34330;52.08032700;5.40923460;2023-08-01T05:24:51;19.30;97.70
6536;DHT22;34330;52.08032700;5.40923460;2023-08-01T05:27:19;19.30;97.70
6536;DHT22;34330;52.08032700;5.40923460;2023-08-01T05:29:47;19.30;97.60
6536;DHT22;34330;52.08032700;5.40923460;2023-08-01T05:32:15;19.40;97.70
6536;DHT22;34330;52.08032700;5.40923460;2023-08-01T05:34:44;19.40;97.60
6536;DHT22;34330;52.08032700;5.40923460;2023-08-01T05:37:12;19.40;97.60
6536;DHT22;34330;52.08032700;5.40923460;2023-08-01T05:39:40;19.40;97.60
6536;DHT22;34330;52.08032700;5.40923460;2023-08-01T05:42:09;19.40;97.40
6536;DHT22;34330;52.08032700;5.40923460;2023-08-01T05:44:37;19.40;97.60
6536;DHT22;34330;52.08032700;5.40923460;2023-08-01T05:47:05;19.50;97.50
6536;DHT22;34330;52.08032700;5.40923460;2023-08-01T05:49:35;19.50;97.50
6536;DHT22;34330;52.08032700;5.40923460;2023-08-01T05:52:03;19.50;97.50
6536;DHT22;34330;52.08032700;5.40923460;2023-08-01T05:54:32;19.50;97.50
6536;DHT22;34330;52.08032700;5.40923460;2023-08-01T05:57:00;19.50;97.50
6536;DHT22;34330;52.08032700;5.40923460;2023-08-01T05:59:29;19.50;97.50
6536;DHT22;34330;52.08032700;5.40923460;2023-08-01T06:01:57;19.50;97.60
6536;DHT22;34330;52.08032700;5.40923460;2023-08-01T06:04:25;19.50;97.50
6536;DHT22;34330;52.08032700;5.40923460;2023-08-01T06:06:54;19.60;97.50
6536;DHT22;34330;52.08032700;5.40923460;2023-08-01T06:09:23;19.60;97.50
6536;DHT22;34330;52.08032700;5.40923460;2023-08-01T06:11:51;19.60;97.50
6536;DHT22;34330;52.08032700;5.40923460;2023-08-01T06:14:19;19.60;97.50
6536;DHT22;34330;52.08032700;5.40923460;2023-08-01T06:16:48;19.60;97.50
6536;DHT22;34330;52.08032700;5.40923460;2023-08-01T06:19:16;19.70;97.60
6536;DHT22;34330;52.08032700;5.40923460;2023-08-01T06:21:44;19.70;97.50
6536;DHT22;34330;52.08032700;5.40923460;2023-08-01T06:24:12;19.70;97.50
6536;DHT22;34330;52.08032700;5.40923460;2023-08-01T06:26:40;19.80;97.60
6536;DHT22;34330;52.08032700;5.40923460;2023-08-01T06:29:09;19.80;97.50
6536;DHT22;34330;52.08032700;5.40923460;2023-08-01T06:31:37;19.90;97.50
6536;DHT22;34330;52.08032700;5.40923460;2023-08-01T06:34:06;19.90;97.40
6536;DHT22;34330;52.08032700;5.40923460;2023-08-01T06:36:34;19.90;97.30
6536;DHT22;34330;52.08032700;5.40923460;2023-08-01T06:39:02;20.00;97.40
6536;DHT22;34330;52.08032700;5.40923460;2023-08-01T06:41:31;20.00;97.20
6536;DHT22;34330;52.08032700;5.40923460;2023-08-01T06:43:59;20.00;97.30
6536;DHT22;34330;52.08032700;5.40923460;2023-08-01T06:46:30;20.00;97.30
6536;DHT22;34330;52.08032700;5.40923460;2023-08-01T06:48:58;20.10;97.20
6536;DHT22;34330;52.08032700;5.40923460;2023-08-01T06:51:28;20.20;97.30
6536;DHT22;34330;52.08032700;5.40923460;2023-08-01T06:53:56;20.20;97.30
6536;DHT22;34330;52.08032700;5.40923460;2023-08-01T06:56:25;20.30;97.10
6536;DHT22;34330;52.08032700;5.40923460;2023-08-01T06:58:53;20.30;96.90
6536;DHT22;34330;52.08032700;5.40923460;2023-08-01T07:01:21;20.00;96.70
6536;DHT22;34330;52.08032700;5.40923460;2023-08-01T07:03:49;20.40;96.80
6536;DHT22;34330;52.08032700;5.40923460;2023-08-01T07:06:19;18.90;96.10
6536;DHT22;34330;52.08032700;5.40923460;2023-08-01T07:08:48;20.40;96.90
6536;DHT22;34330;52.08032700;5.40923460;2023-08-01T07:11:16;20.50;96.60
6536;DHT22;34330;52.08032700;5.40923460;2023-08-01T07:13:45;20.50;97.00
6536;DHT22;34330;52.08032700;5.40923460;2023-08-01T07:16:14;20.50;96.50
6536;DHT22;34330;52.08032700;5.40923460;2023-08-01T07:18:42;20.60;96.50
6536;DHT22;34330;52.08032700;5.40923460;2023-08-01T07:21:10;20.60;96.60
6536;DHT22;34330;52.08032700;5.40923460;2023-08-01T07:23:38;20.70;96.50
6536;DHT22;34330;52.08032700;5.40923460;2023-08-01T07:26:09;20.70;96.40
6536;DHT22;34330;52.08032700;5.40923460;2023-08-01T07:28:37;20.70;96.40
6536;DHT22;34330;52.08032700;5.40923460;2023-08-01T07:31:06;20.80;96.10
6536;DHT22;34330;52.08032700;5.40923460;2023-08-01T07:33:34;20.80;96.00
6536;DHT22;34330;52.08032700;5.40923460;2023-08-01T07:36:03;20.80;96.00
6536;DHT22;34330;52.08032700;5.40923460;2023-08-01T07:38:31;20.80;96.00
6536;DHT22;34330;52.08032700;5.40923460;2023-08-01T07:41:02;20.70;95.70
6536;DHT22;34330;52.08032700;5.40923460;2023-08-01T07:43:33;20.70;95.70
6536;DHT22;34330;52.08032700;5.40923460;2023-08-01T07:46:01;20.60;95.60
6536;DHT22;34330;52.08032700;5.40923460;2023-08-01T07:48:29;20.60;95.60
6536;DHT22;34330;52.08032700;5.40923460;2023-08-01T07:50:57;20.50;95.50
6536;DHT22;34330;52.08032700;5.40923460;2023-08-01T07:53:26;20.50;95.60
6536;DHT22;34330;52.08032700;5.40923460;2023-08-01T07:55:56;20.40;95.80
6536;DHT22;34330;52.08032700;5.40923460;2023-08-01T07:58:24;20.40;96.20
6536;DHT22;34330;52.08032700;5.40923460;2023-08-01T08:00:53;20.30;96.30
6536;DHT22;34330;52.08032700;5.40923460;2023-08-01T08:03:23;20.30;96.50
6536;DHT22;34330;52.08032700;5.40923460;2023-08-01T08:05:51;20.30;96.60
6536;DHT22;34330;52.08032700;5.40923460;2023-08-01T08:08:19;20.40;96.70
6536;DHT22;34330;52.08032700;5.40923460;2023-08-01T08:10:47;20.40;96.60
6536;DHT22;34330;52.08032700;5.40923460;2023-08-01T08:13:15;20.50;96.70
6536;DHT22;34330;52.08032700;5.40923460;2023-08-01T08:15:43;20.50;96.70
6536;DHT22;34330;52.08032700;5.40923460;2023-08-01T08:18:13;20.60;96.70
6536;DHT22;34330;52.08032700;5.40923460;2023-08-01T08:20:44;20.60;96.60
6536;DHT22;34330;52.08032700;5.40923460;2023-08-01T08:23:13;20.70;96.30
6536;DHT22;34330;52.08032700;5.40923460;2023-08-01T08:25:41;20.70;96.40
6536;DHT22;34330;52.08032700;5.40923460;2023-08-01T08:28:11;20.80;96.20
6536;DHT22;34330;52.08032700;5.40923460;2023-08-01T08:30:40;20.90;96.00
6536;DHT22;34330;52.08032700;5.40923460;2023-08-01T08:33:08;21.00;95.90
6536;DHT22;34330;52.08032700;5.40923460;2023-08-01T08:35:40;20.50;95.70
6536;DHT22;34330;52.08032700;5.40923460;2023-08-01T08:38:08;21.10;96.00
6536;DHT22;34330;52.08032700;5.40923460;2023-08-01T08:40:41;21.20;96.20
6536;DHT22;34330;52.08032700;5.40923460;2023-08-01T08:43:11;21.30;95.70
6536;DHT22;34330;52.08032700;5.40923460;2023-08-01T08:45:41;21.40;95.40
6536;DHT22;34330;52.08032700;5.40923460;2023-08-01T08:48:13;21.50;95.50
6536;DHT22;34330;52.08032700;5.40923460;2023-08-01T08:50:47;21.60;95.20
6536;DHT22;34330;52.08032700;5.40923460;2023-08-01T08:53:19;21.70;95.00
6536;DHT22;34330;52.08032700;5.40923460;2023-08-01T08:55:48;21.80;95.10
6536;DHT22;34330;52.08032700;5.40923460;2023-08-01T08:58:16;21.90;94.80
6536;DHT22;34330;52.08032700;5.40923460;2023-08-01T09:00:45;21.90;94.40
6536;DHT22;34330;52.08032700;5.40923460;2023-08-01T09:03:15;22.00;94.30
6536;DHT22;34330;52.08032700;5.40923460;2023-08-01T09:05:48;22.00;93.70
6536;DHT22;34330;52.08032700;5.40923460;2023-08-01T09:08:18;22.10;93.50
6536;DHT22;34330;52.08032700;5.40923460;2023-08-01T09:10:47;22.10;93.30
6536;DHT22;34330;52.08032700;5.40923460;2023-08-01T09:13:15;22.10;93.30
6536;DHT22;34330;52.08032700;5.40923460;2023-08-01T09:15:44;22.10;92.90
6536;DHT22;34330;52.08032700;5.40923460;2023-08-01T09:18:12;22.10;92.80
6536;DHT22;34330;52.08032700;5.40923460;2023-08-01T09:20:42;22.10;92.60
6536;DHT22;34330;52.08032700;5.40923460;2023-08-01T09:23:12;22.10;92.60
6536;DHT22;34330;52.08032700;5.40923460;2023-08-01T09:25:41;22.10;92.20
6536;DHT22;34330;52.08032700;5.40923460;2023-08-01T09:28:19;22.10;92.30
6536;DHT22;34330;52.08032700;5.40923460;2023-08-01T09:30:49;22.10;91.90
6536;DHT22;34330;52.08032700;5.40923460;2023-08-01T09:33:18;22.20;92.30
6536;DHT22;34330;52.08032700;5.40923460;2023-08-01T09:35:46;22.20;92.10
6536;DHT22;34330;52.08032700;5.40923460;2023-08-01T09:38:16;22.20;91.90
6536;DHT22;34330;52.08032700;5.40923460;2023-08-01T09:40:45;22.20;92.10
6536;DHT22;34330;52.08032700;5.40923460;2023-08-01T09:43:13;22.30;92.20
6536;DHT22;34330;52.08032700;5.40923460;2023-08-01T09:45:52;22.90;92.00
6536;DHT22;34330;52.08032700;5.40923460;2023-08-01T09:48:25;22.40;91.60
6536;DHT22;34330;52.08032700;5.40923460;2023-08-01T09:51:07;22.50;91.70
6536;DHT22;34330;52.08032700;5.40923460;2023-08-01T09:53:47;22.50;91.10
6536;DHT22;34330;52.08032700;5.40923460;2023-08-01T09:56:15;22.70;91.10
6536;DHT22;34330;52.08032700;5.40923460;2023-08-01T09:58:46;22.70;91.20
6536;DHT22;34330;52.08032700;5.40923460;2023-08-01T10:01:15;22.70;91.30
6536;DHT22;34330;52.08032700;5.40923460;2023-08-01T10:03:46;22.70;91.10
6536;DHT22;34330;52.08032700;5.40923460;2023-08-01T10:06:18;22.70;90.80
6536;DHT22;34330;52.08032700;5.40923460;2023-08-01T10:08:49;22.70;90.20
6536;DHT22;34330;52.08032700;5.40923460;2023-08-01T10:11:18;22.60;89.60
6536;DHT22;34330;52.08032700;5.40923460;2023-08-01T10:13:47;22.60;90.00
6536;DHT22;34330;52.08032700;5.40923460;2023-08-01T10:16:15;22.60;89.90
6536;DHT22;34330;52.08032700;5.40923460;2023-08-01T10:18:44;22.50;90.00
6536;DHT22;34330;52.08032700;5.40923460;2023-08-01T10:21:15;22.50;90.20
6536;DHT22;34330;52.08032700;5.40923460;2023-08-01T10:23:45;22.60;90.00
6536;DHT22;34330;52.08032700;5.40923460;2023-08-01T10:26:15;22.60;89.90
6536;DHT22;34330;52.08032700;5.40923460;2023-08-01T10:28:50;22.70;89.20
6536;DHT22;34330;52.08032700;5.40923460;2023-08-01T10:31:19;22.80;89.20
6536;DHT22;34330;52.08032700;5.40923460;2023-08-01T10:33:49;22.90;90.00
6536;DHT22;34330;52.08032700;5.40923460;2023-08-01T10:36:20;23.10;89.50
6536;DHT22;34330;52.08032700;5.40923460;2023-08-01T10:38:51;23.20;90.00
6536;DHT22;34330;52.08032700;5.40923460;2023-08-01T10:41:21;23.30;89.60
6536;DHT22;34330;52.08032700;5.40923460;2023-08-01T10:43:50;23.40;89.70
6536;DHT22;34330;52.08032700;5.40923460;2023-08-01T10:46:18;23.50;89.20
6536;DHT22;34330;52.08032700;5.40923460;2023-08-01T10:48:50;23.60;88.00
6536;DHT22;34330;52.08032700;5.40923460;2023-08-01T10:51:19;23.60;86.30
6536;DHT22;34330;52.08032700;5.40923460;2023-08-01T10:53:47;23.60;85.60
6536;DHT22;34330;52.08032700;5.40923460;2023-08-01T10:56:16;23.50;84.90
6536;DHT22;34330;52.08032700;5.40923460;2023-08-01T10:58:46;23.50;84.60
6536;DHT22;34330;52.08032700;5.40923460;2023-08-01T11:01:15;23.40;85.10
6536;DHT22;34330;52.08032700;5.40923460;2023-08-01T11:03:43;23.40;86.30
6536;DHT22;34330;52.08032700;5.40923460;2023-08-01T11:06:11;23.40;86.10
6536;DHT22;34330;52.08032700;5.40923460;2023-08-01T11:08:40;23.40;84.60
6536;DHT22;34330;52.08032700;5.40923460;2023-08-01T11:11:12;23.40;83.50
6536;DHT22;34330;52.08032700;5.40923460;2023-08-01T11:13:50;23.40;83.20
6536;DHT22;34330;52.08032700;5.40923460;2023-08-01T11:16:18;23.40;83.90
6536;DHT22;34330;52.08032700;5.40923460;2023-08-01T11:18:47;23.40;84.10
6536;DHT22;34330;52.08032700;5.40923460;2023-08-01T11:21:25;23.40;83.40
6536;DHT22;34330;52.08032700;5.40923460;2023-08-01T11:23:54;23.50;82.30
6536;DHT22;34330;52.08032700;5.40923460;2023-08-01T11:26:24;23.30;83.00
6536;DHT22;34330;52.08032700;5.40923460;2023-08-01T11:28:53;23.30;83.20
6536;DHT22;34330;52.08032700;5.40923460;2023-08-01T11:31:22;23.30;83.10
6536;DHT22;34330;52.08032700;5.40923460;2023-08-01T11:33:55;23.30;83.50
6536;DHT22;34330;52.08032700;5.40923460;2023-08-01T11:36:26;23.20;83.50
6536;DHT22;34330;52.08032700;5.40923460;2023-08-01T11:38:57;23.10;83.90
6536;DHT22;34330;52.08032700;5.40923460;2023-08-01T11:41:26;23.10;84.10
6536;DHT22;34330;52.08032700;5.40923460;2023-08-01T11:44:01;23.10;84.30
6536;DHT22;34330;52.08032700;5.40923460;2023-08-01T11:46:33;23.20;84.10
6536;DHT22;34330;52.08032700;5.40923460;2023-08-01T11:49:02;23.30;83.50
6536;DHT22;34330;52.08032700;5.40923460;2023-08-01T11:51:30;23.40;84.10
6536;DHT22;34330;52.08032700;5.40923460;2023-08-01T11:54:06;23.40;83.40
6536;DHT22;34330;52.08032700;5.40923460;2023-08-01T11:56:35;23.50;83.40
6536;DHT22;34330;52.08032700;5.40923460;2023-08-01T11:59:12;23.60;83.00
6536;DHT22;34330;52.08032700;5.40923460;2023-08-01T12:01:41;23.60;81.40
6536;DHT22;34330;52.08032700;5.40923460;2023-08-01T12:04:10;23.60;82.70
6536;DHT22;34330;52.08032700;5.40923460;2023-08-01T12:06:38;23.60;82.50
6536;DHT22;34330;52.08032700;5.40923460;2023-08-01T12:09:09;23.70;81.90
6536;DHT22;34330;52.08032700;5.40923460;2023-08-01T12:11:38;23.70;82.10
6536;DHT22;34330;52.08032700;5.40923460;2023-08-01T12:14:07;23.80;82.40
6536;DHT22;34330;52.08032700;5.40923460;2023-08-01T12:16:38;23.80;81.60
6536;DHT22;34330;52.08032700;5.40923460;2023-08-01T12:19:08;23.90;80.70
6536;DHT22;34330;52.08032700;5.40923460;2023-08-01T12:21:38;23.90;81.10
6536;DHT22;34330;52.08032700;5.40923460;2023-08-01T12:24:06;23.90;81.50
6536;DHT22;34330;52.08032700;5.40923460;2023-08-01T12:26:34;23.90;81.70
6536;DHT22;34330;52.08032700;5.40923460;2023-08-01T12:29:02;23.80;82.30
6536;DHT22;34330;52.08032700;5.40923460;2023-08-01T12:31:31;23.80;80.80
6536;DHT22;34330;52.08032700;5.40923460;2023-08-01T12:34:00;23.80;79.60
6536;DHT22;34330;52.08032700;5.40923460;2023-08-01T12:36:28;23.80;78.90
6536;DHT22;34330;52.08032700;5.40923460;2023-08-01T12:38:56;23.70;79.40
6536;DHT22;34330;52.08032700;5.40923460;2023-08-01T12:41:24;23.70;79.50
6536;DHT22;34330;52.08032700;5.40923460;2023-08-01T12:43:52;23.60;79.80
6536;DHT22;34330;52.08032700;5.40923460;2023-08-01T12:46:20;23.60;80.30
6536;DHT22;34330;52.08032700;5.40923460;2023-08-01T12:48:48;23.60;79.60
6536;DHT22;34330;52.08032700;5.40923460;2023-08-01T12:51:18;23.50;80.00
6536;DHT22;34330;52.08032700;5.40923460;2023-08-01T12:53:46;23.60;80.40
6536;DHT22;34330;52.08032700;5.40923460;2023-08-01T12:56:14;23.50;80.50
6536;DHT22;34330;52.08032700;5.40923460;2023-08-01T12:58:42;23.60;81.10
6536;DHT22;34330;52.08032700;5.40923460;2023-08-01T13:01:10;23.60;79.60
6536;DHT22;34330;52.08032700;5.40923460;2023-08-01T13:03:39;23.70;80.10
6536;DHT22;34330;52.08032700;5.40923460;2023-08-01T13:06:10;23.90;79.50
6536;DHT22;34330;52.08032700;5.40923460;2023-08-01T13:08:40;23.90;78.10
6536;DHT22;34330;52.08032700;5.40923460;2023-08-01T13:11:11;24.00;78.00
6536;DHT22;34330;52.08032700;5.40923460;2023-08-01T13:13:40;24.10;78.00
6536;DHT22;34330;52.08032700;5.40923460;2023-08-01T13:16:08;24.00;79.10
6536;DHT22;34330;52.08032700;5.40923460;2023-08-01T13:18:37;24.10;79.80
6536;DHT22;34330;52.08032700;5.40923460;2023-08-01T13:21:10;24.00;79.50
6536;DHT22;34330;52.08032700;5.40923460;2023-08-01T13:23:40;23.90;81.10
6536;DHT22;34330;52.08032700;5.40923460;2023-08-01T13:26:08;23.80;80.30
6536;DHT22;34330;52.08032700;5.40923460;2023-08-01T13:28:36;23.70;80.70
6536;DHT22;34330;52.08032700;5.40923460;2023-08-01T13:31:04;23.60;82.00
6536;DHT22;34330;52.08032700;5.40923460;2023-08-01T13:33:32;23.60;82.00
6536;DHT22;34330;52.08032700;5.40923460;2023-08-01T13:36:00;23.50;82.60
6536;DHT22;34330;52.08032700;5.40923460;2023-08-01T13:38:29;23.40;83.00
6536;DHT22;34330;52.08032700;5.40923460;2023-08-01T13:41:00;23.40;82.60
6536;DHT22;34330;52.08032700;5.40923460;2023-08-01T13:43:28;23.40;83.60